South Bisbee, Arizona
Current Conditions -  °F | °C
As of 4:56 PM on Sunday 21 Dec 2014 (Local Time) from KDUG Reporting Station
Clear Clear  
Wind Chill: 57°   Ceiling: Unl
Heat Index: 57°   Visibility: 10mi
Dew Point: 29°   Wind: 5mph
Humidity: 34%   Direction: 180°S
Pressure: 30.04"   Gusts: NA
Location:  31.4799°N, 109.96°W
Report Text: KDUG 212356Z AUTO 18004KT 10SM CLR 14/M02 A3004 RMK AO2 SLP155 T01391017 10156 20094 56005
Loading
Personal Weather Stations






























Interactive Weather Map New forecast layout! Learn more

10-Day Weather Forecast

Advertisements
Track Severe Weather on mobile